sensor_id;sensor_type;location;lat;lon;timestamp;pressure;altitude;pressure_sealevel;temperature;humidity
7768;BME280;3928;42.626;23.382;2023-06-26T00:01:42;93986.06;;;23.53;87.83
7768;BME280;3928;42.626;23.382;2023-06-26T00:04:09;93985.16;;;23.42;88.35
7768;BME280;3928;42.626;23.382;2023-06-26T00:06:40;93980.69;;;23.31;88.47
7768;BME280;3928;42.626;23.382;2023-06-26T00:09:07;93988.84;;;23.39;88.77
7768;BME280;3928;42.626;23.382;2023-06-26T00:11:33;93981.22;;;23.36;88.70
7768;BME280;3928;42.626;23.382;2023-06-26T00:14:01;93988.00;;;23.39;89.25
7768;BME280;3928;42.626;23.382;2023-06-26T00:16:28;93980.88;;;23.41;88.89
7768;BME280;3928;42.626;23.382;2023-06-26T00:18:56;93980.75;;;23.42;88.63
7768;BME280;3928;42.626;23.382;2023-06-26T00:21:24;93983.88;;;23.60;87.94
7768;BME280;3928;42.626;23.382;2023-06-26T00:23:51;93983.84;;;23.36;89.20
7768;BME280;3928;42.626;23.382;2023-06-26T00:26:18;93980.38;;;23.36;89.13
7768;BME280;3928;42.626;23.382;2023-06-26T00:28:44;93974.84;;;23.27;89.64
7768;BME280;3928;42.626;23.382;2023-06-26T00:31:13;93976.75;;;23.25;90.07
7768;BME280;3928;42.626;23.382;2023-06-26T00:33:39;93978.75;;;23.22;90.08
7768;BME280;3928;42.626;23.382;2023-06-26T00:36:06;93983.25;;;23.20;90.32
7768;BME280;3928;42.626;23.382;2023-06-26T00:38:34;93975.00;;;23.13;90.64
7768;BME280;3928;42.626;23.382;2023-06-26T00:41:01;93977.22;;;22.94;91.42
7768;BME280;3928;42.626;23.382;2023-06-26T00:43:28;93979.22;;;22.90;92.02
7768;BME280;3928;42.626;23.382;2023-06-26T00:45:55;93967.28;;;22.99;91.63
7768;BME280;3928;42.626;23.382;2023-06-26T00:48:23;93976.28;;;22.95;92.04
7768;BME280;3928;42.626;23.382;2023-06-26T00:50:50;93971.78;;;22.84;92.67
7768;BME280;3928;42.626;23.382;2023-06-26T00:53:17;93893.22;;;22.60;91.33
7768;BME280;3928;42.626;23.382;2023-06-26T00:55:44;93969.44;;;23.18;91.12
7768;BME280;3928;42.626;23.382;2023-06-26T00:58:12;93968.00;;;23.01;91.54
7768;BME280;3928;42.626;23.382;2023-06-26T01:00:39;93965.19;;;23.04;90.89
7768;BME280;3928;42.626;23.382;2023-06-26T01:03:06;93961.19;;;23.11;90.70
7768;BME280;3928;42.626;23.382;2023-06-26T01:05:34;93959.00;;;23.05;91.09
7768;BME280;3928;42.626;23.382;2023-06-26T01:08:01;93954.94;;;23.01;91.25
7768;BME280;3928;42.626;23.382;2023-06-26T01:10:30;93956.09;;;22.97;91.42
7768;BME280;3928;42.626;23.382;2023-06-26T01:12:57;93954.22;;;22.99;91.02
7768;BME280;3928;42.626;23.382;2023-06-26T01:15:24;93946.06;;;22.91;91.21
7768;BME280;3928;42.626;23.382;2023-06-26T01:17:51;93949.00;;;22.86;91.65
7768;BME280;3928;42.626;23.382;2023-06-26T01:20:19;93942.81;;;22.62;93.29
7768;BME280;3928;42.626;23.382;2023-06-26T01:22:57;93946.06;;;22.65;92.64
7768;BME280;3928;42.626;23.382;2023-06-26T01:25:33;93938.31;;;22.76;92.38
7768;BME280;3928;42.626;23.382;2023-06-26T01:28:05;93927.38;;;22.83;92.02
7768;BME280;3928;42.626;23.382;2023-06-26T01:30:34;93940.09;;;22.89;91.96
7768;BME280;3928;42.626;23.382;2023-06-26T01:33:03;93938.53;;;22.86;91.78
7768;BME280;3928;42.626;23.382;2023-06-26T01:35:31;93921.31;;;22.82;91.55
7768;BME280;3928;42.626;23.382;2023-06-26T01:38:11;93931.78;;;22.95;91.34
7768;BME280;3928;42.626;23.382;2023-06-26T01:40:38;93926.44;;;23.09;89.94
7768;BME280;3928;42.626;23.382;2023-06-26T01:43:11;93925.16;;;23.15;89.95
7768;BME280;3928;42.626;23.382;2023-06-26T01:45:40;93920.75;;;23.15;89.34
7768;BME280;3928;42.626;23.382;2023-06-26T01:48:10;93921.28;;;23.08;89.77
7768;BME280;3928;42.626;23.382;2023-06-26T01:50:40;93915.16;;;22.96;89.97
7768;BME280;3928;42.626;23.382;2023-06-26T01:53:10;93923.28;;;23.04;89.96
7768;BME280;3928;42.626;23.382;2023-06-26T01:55:44;93930.50;;;23.13;89.07
7768;BME280;3928;42.626;23.382;2023-06-26T01:58:14;93925.16;;;23.15;88.41
7768;BME280;3928;42.626;23.382;2023-06-26T02:00:42;93929.66;;;23.13;88.69
7768;BME280;3928;42.626;23.382;2023-06-26T02:03:09;93921.94;;;23.11;88.06
7768;BME280;3928;42.626;23.382;2023-06-26T02:05:36;93923.91;;;23.08;88.62
7768;BME280;3928;42.626;23.382;2023-06-26T02:08:03;93914.50;;;23.05;88.36
7768;BME280;3928;42.626;23.382;2023-06-26T02:10:30;93923.22;;;22.93;88.73
7768;BME280;3928;42.626;23.382;2023-06-26T02:12:57;93922.47;;;23.03;88.05
7768;BME280;3928;42.626;23.382;2023-06-26T02:15:25;93916.28;;;23.04;87.67
7768;BME280;3928;42.626;23.382;2023-06-26T02:20:37;93923.81;;;23.09;86.83
7768;BME280;3928;42.626;23.382;2023-06-26T02:23:04;93929.06;;;23.09;86.92
7768;BME280;3928;42.626;23.382;2023-06-26T02:25:31;93922.97;;;23.09;86.32
7768;BME280;3928;42.626;23.382;2023-06-26T02:27:58;93925.94;;;22.91;87.00
7768;BME280;3928;42.626;23.382;2023-06-26T02:30:26;93937.34;;;23.03;86.64
7768;BME280;3928;42.626;23.382;2023-06-26T02:32:53;93929.09;;;22.84;87.44
7768;BME280;3928;42.626;23.382;2023-06-26T02:35:20;93931.53;;;22.87;87.67
7768;BME280;3928;42.626;23.382;2023-06-26T02:37:46;93932.75;;;22.94;87.43
7768;BME280;3928;42.626;23.382;2023-06-26T02:40:13;93940.09;;;22.63;88.81
7768;BME280;3928;42.626;23.382;2023-06-26T02:42:40;93931.91;;;22.81;88.67
7768;BME280;3928;42.626;23.382;2023-06-26T02:45:08;93910.25;;;22.79;88.46
7768;BME280;3928;42.626;23.382;2023-06-26T02:47:37;93927.94;;;22.75;88.84
7768;BME280;3928;42.626;23.382;2023-06-26T02:50:05;93927.38;;;22.83;88.80
7768;BME280;3928;42.626;23.382;2023-06-26T02:52:32;93929.19;;;22.69;89.51
7768;BME280;3928;42.626;23.382;2023-06-26T02:54:59;93932.63;;;22.83;89.40
7768;BME280;3928;42.626;23.382;2023-06-26T02:57:26;93934.03;;;22.88;88.90
7768;BME280;3928;42.626;23.382;2023-06-26T02:59:52;93928.69;;;22.90;88.67
7768;BME280;3928;42.626;23.382;2023-06-26T03:02:19;93938.31;;;22.89;88.90
7768;BME280;3928;42.626;23.382;2023-06-26T03:04:47;93904.84;;;22.56;89.40
7768;BME280;3928;42.626;23.382;2023-06-26T03:07:15;93932.25;;;22.89;88.72
7768;BME280;3928;42.626;23.382;2023-06-26T03:09:42;93932.63;;;22.83;88.57
7768;BME280;3928;42.626;23.382;2023-06-26T03:12:09;93924.94;;;22.56;89.40
7768;BME280;3928;42.626;23.382;2023-06-26T03:14:35;93943.09;;;22.83;88.59
7768;BME280;3928;42.626;23.382;2023-06-26T03:17:02;93939.38;;;22.74;88.75
7768;BME280;3928;42.626;23.382;2023-06-26T03:19:29;93937.69;;;22.86;88.17
7768;BME280;3928;42.626;23.382;2023-06-26T03:21:57;93939.66;;;22.69;88.58
7768;BME280;3928;42.626;23.382;2023-06-26T03:24:24;93913.03;;;22.39;89.02
7768;BME280;3928;42.626;23.382;2023-06-26T03:26:51;93941.78;;;22.52;89.53
7768;BME280;3928;42.626;23.382;2023-06-26T03:29:18;93939.06;;;22.53;89.12
7768;BME280;3928;42.626;23.382;2023-06-26T03:31:45;93940.19;;;22.36;89.57
7768;BME280;3928;42.626;23.382;2023-06-26T03:34:12;93919.28;;;22.24;89.53
7768;BME280;3928;42.626;23.382;2023-06-26T03:36:38;93943.56;;;22.51;89.46
7768;BME280;3928;42.626;23.382;2023-06-26T03:39:08;93947.13;;;22.63;88.80
7768;BME280;3928;42.626;23.382;2023-06-26T03:41:34;93936.41;;;22.79;88.04
7768;BME280;3928;42.626;23.382;2023-06-26T03:44:01;93912.88;;;22.66;87.12
7768;BME280;3928;42.626;23.382;2023-06-26T03:46:29;93943.56;;;22.64;87.39
7768;BME280;3928;42.626;23.382;2023-06-26T03:48:56;93933.84;;;22.53;88.22
7768;BME280;3928;42.626;23.382;2023-06-26T03:51:22;93934.44;;;22.69;87.69
7768;BME280;3928;42.626;23.382;2023-06-26T03:53:49;93941.13;;;22.48;88.26
7768;BME280;3928;42.626;23.382;2023-06-26T03:56:17;93940.63;;;22.56;88.25
7768;BME280;3928;42.626;23.382;2023-06-26T03:58:44;93921.81;;;22.51;87.99
7768;BME280;3928;42.626;23.382;2023-06-26T04:01:11;93939.44;;;22.72;87.63
7768;BME280;3928;42.626;23.382;2023-06-26T04:03:38;93944.78;;;22.84;87.19
7768;BME280;3928;42.626;23.382;2023-06-26T04:06:04;93940.00;;;22.65;87.90
7768;BME280;3928;42.626;23.382;2023-06-26T04:08:31;93938.53;;;22.73;87.79
7768;BME280;3928;42.626;23.382;2023-06-26T04:10:58;93932.88;;;22.67;87.83
7768;BME280;3928;42.626;23.382;2023-06-26T04:13:26;93928.34;;;22.05;90.85
7768;BME280;3928;42.626;23.382;2023-06-26T04:15:53;93926.50;;;22.45;89.19
7768;BME280;3928;42.626;23.382;2023-06-26T04:18:20;93923.28;;;22.42;88.88
7768;BME280;3928;42.626;23.382;2023-06-26T04:21:06;93930.50;;;22.38;89.34
7768;BME280;3928;42.626;23.382;2023-06-26T04:23:34;93926.38;;;22.60;88.22
7768;BME280;3928;42.626;23.382;2023-06-26T04:26:01;93926.19;;;22.63;87.45
7768;BME280;3928;42.626;23.382;2023-06-26T04:28:31;93940.19;;;22.74;87.33
7768;BME280;3928;42.626;23.382;2023-06-26T04:30:58;93910.88;;;22.69;86.87
7768;BME280;3928;42.626;23.382;2023-06-26T04:33:25;93938.78;;;23.07;86.22
7768;BME280;3928;42.626;23.382;2023-06-26T04:35:52;93940.19;;;23.00;85.60
7768;BME280;3928;42.626;23.382;2023-06-26T04:38:19;93943.59;;;23.13;85.72
7768;BME280;3928;42.626;23.382;2023-06-26T04:40:47;93953.13;;;23.14;84.72
7768;BME280;3928;42.626;23.382;2023-06-26T04:43:14;93949.78;;;23.12;85.28
7768;BME280;3928;42.626;23.382;2023-06-26T04:45:42;93946.69;;;23.18;84.47
7768;BME280;3928;42.626;23.382;2023-06-26T04:48:09;93955.44;;;23.06;84.95
7768;BME280;3928;42.626;23.382;2023-06-26T04:50:36;93951.88;;;23.07;84.60
7768;BME280;3928;42.626;23.382;2023-06-26T04:53:03;93947.03;;;23.14;84.56
7768;BME280;3928;42.626;23.382;2023-06-26T04:55:30;93919.47;;;22.97;84.57
7768;BME280;3928;42.626;23.382;2023-06-26T04:57:57;93946.56;;;23.32;84.13
7768;BME280;3928;42.626;23.382;2023-06-26T05:00:23;93950.53;;;23.38;83.49
7768;BME280;3928;42.626;23.382;2023-06-26T05:02:53;93946.28;;;23.24;82.94
7768;BME280;3928;42.626;23.382;2023-06-26T05:05:26;93956.53;;;23.27;83.30
7768;BME280;3928;42.626;23.382;2023-06-26T05:07:53;93956.41;;;23.29;84.47
7768;BME280;3928;42.626;23.382;2023-06-26T05:10:20;93960.38;;;23.34;84.35
7768;BME280;3928;42.626;23.382;2023-06-26T05:12:47;93954.44;;;23.20;84.53
7768;BME280;3928;42.626;23.382;2023-06-26T05:15:14;93966.19;;;23.51;83.96
7768;BME280;3928;42.626;23.382;2023-06-26T05:17:40;93960.72;;;23.54;83.29
7768;BME280;3928;42.626;23.382;2023-06-26T05:20:10;93963.06;;;23.46;84.08
7768;BME280;3928;42.626;23.382;2023-06-26T05:22:37;93970.34;;;23.66;83.10
7768;BME280;3928;42.626;23.382;2023-06-26T05:25:07;93963.59;;;23.75;83.24
7768;BME280;3928;42.626;23.382;2023-06-26T05:27:35;93964.72;;;23.83;85.24
7768;BME280;3928;42.626;23.382;2023-06-26T05:30:03;93968.94;;;23.97;82.70
7768;BME280;3928;42.626;23.382;2023-06-26T05:32:31;93973.94;;;24.00;81.72
7768;BME280;3928;42.626;23.382;2023-06-26T05:35:02;93972.41;;;24.09;81.45
7768;BME280;3928;42.626;23.382;2023-06-26T05:37:31;93963.28;;;23.90;81.82
7768;BME280;3928;42.626;23.382;2023-06-26T05:39:59;93977.16;;;23.92;81.93
7768;BME280;3928;42.626;23.382;2023-06-26T05:42:26;93976.94;;;24.07;81.17
7768;BME280;3928;42.626;23.382;2023-06-26T05:44:53;93962.13;;;23.95;81.45
7768;BME280;3928;42.626;23.382;2023-06-26T05:47:20;93977.19;;;24.15;80.36
7768;BME280;3928;42.626;23.382;2023-06-26T05:49:47;93964.09;;;24.15;80.60
7768;BME280;3928;42.626;23.382;2023-06-26T05:52:14;93974.97;;;24.21;80.21
7768;BME280;3928;42.626;23.382;2023-06-26T05:54:43;93972.84;;;24.03;80.62
7768;BME280;3928;42.626;23.382;2023-06-26T05:57:12;93984.56;;;24.10;80.71
7768;BME280;3928;42.626;23.382;2023-06-26T05:59:40;93984.38;;;24.24;80.38
7768;BME280;3928;42.626;23.382;2023-06-26T06:02:07;93987.91;;;24.12;81.28
7768;BME280;3928;42.626;23.382;2023-06-26T06:04:34;93966.94;;;24.12;80.57
7768;BME280;3928;42.626;23.382;2023-06-26T06:07:03;93987.25;;;24.21;80.00
7768;BME280;3928;42.626;23.382;2023-06-26T06:09:29;93993.41;;;24.09;80.69
7768;BME280;3928;42.626;23.382;2023-06-26T06:11:58;93980.47;;;23.95;80.40
7768;BME280;3928;42.626;23.382;2023-06-26T06:14:26;93979.34;;;24.10;80.83
7768;BME280;3928;42.626;23.382;2023-06-26T06:16:53;93988.97;;;24.33;80.52
7768;BME280;3928;42.626;23.382;2023-06-26T06:19:21;93978.03;;;24.39;80.20
7768;BME280;3928;42.626;23.382;2023-06-26T06:21:48;93975.63;;;24.47;77.86
7768;BME280;3928;42.626;23.382;2023-06-26T06:24:15;93970.16;;;24.50;78.44
7768;BME280;3928;42.626;23.382;2023-06-26T06:26:41;93981.16;;;24.56;77.01
7768;BME280;3928;42.626;23.382;2023-06-26T06:29:10;93978.78;;;24.64;76.76
7768;BME280;3928;42.626;23.382;2023-06-26T06:31:36;93915.66;;;24.32;75.67
7768;BME280;3928;42.626;23.382;2023-06-26T06:34:03;93969.72;;;24.68;74.73
7768;BME280;3928;42.626;23.382;2023-06-26T06:36:30;93967.81;;;24.81;73.02
7768;BME280;3928;42.626;23.382;2023-06-26T06:38:57;93951.59;;;24.76;72.70
7768;BME280;3928;42.626;23.382;2023-06-26T06:41:23;93968.19;;;24.99;74.24
7768;BME280;3928;42.626;23.382;2023-06-26T06:43:50;93965.91;;;25.17;73.60
7768;BME280;3928;42.626;23.382;2023-06-26T06:46:18;93969.72;;;25.35;72.31
7768;BME280;3928;42.626;23.382;2023-06-26T06:48:45;93968.81;;;25.57;72.26
7768;BME280;3928;42.626;23.382;2023-06-26T06:51:12;93973.84;;;25.60;70.55
7768;BME280;3928;42.626;23.382;2023-06-26T06:53:39;93977.19;;;25.62;71.09
7768;BME280;3928;42.626;23.382;2023-06-26T06:56:06;93974.69;;;25.60;71.20
7768;BME280;3928;42.626;23.382;2023-06-26T06:58:32;93975.88;;;25.45;70.22
7768;BME280;3928;42.626;23.382;2023-06-26T07:01:01;93977.50;;;25.69;69.38
7768;BME280;3928;42.626;23.382;2023-06-26T07:03:31;93964.13;;;25.83;67.77
7768;BME280;3928;42.626;23.382;2023-06-26T07:05:57;93962.53;;;25.91;68.58
7768;BME280;3928;42.626;23.382;2023-06-26T07:08:24;93963.63;;;25.89;68.17
7768;BME280;3928;42.626;23.382;2023-06-26T07:10:52;93960.63;;;25.93;67.65
7768;BME280;3928;42.626;23.382;2023-06-26T07:13:19;93958.31;;;26.00;68.04
7768;BME280;3928;42.626;23.382;2023-06-26T07:15:46;93926.44;;;26.14;67.64
7768;BME280;3928;42.626;23.382;2023-06-26T07:18:14;93958.94;;;26.66;65.99
7768;BME280;3928;42.626;23.382;2023-06-26T07:20:42;93963.94;;;26.69;64.03
7768;BME280;3928;42.626;23.382;2023-06-26T07:23:09;93960.88;;;26.64;64.42
7768;BME280;3928;42.626;23.382;2023-06-26T07:25:36;93967.66;;;26.67;63.48
7768;BME280;3928;42.626;23.382;2023-06-26T07:28:03;93961.66;;;26.23;63.99
7768;BME280;3928;42.626;23.382;2023-06-26T07:30:29;93965.31;;;26.43;61.14
7768;BME280;3928;42.626;23.382;2023-06-26T07:32:57;93963.66;;;26.42;62.46
7768;BME280;3928;42.626;23.382;2023-06-26T07:35:23;93956.97;;;26.27;62.22
7768;BME280;3928;42.626;23.382;2023-06-26T07:37:55;93957.41;;;26.43;61.28
7768;BME280;3928;42.626;23.382;2023-06-26T07:40:23;93963.94;;;26.48;60.35
7768;BME280;3928;42.626;23.382;2023-06-26T07:42:52;93970.59;;;26.73;59.85
7768;BME280;3928;42.626;23.382;2023-06-26T07:45:20;93941.72;;;26.93;61.42
7768;BME280;3928;42.626;23.382;2023-06-26T07:47:47;93919.81;;;27.13;62.53
7768;BME280;3928;42.626;23.382;2023-06-26T07:50:14;93936.50;;;27.43;57.53
7768;BME280;3928;42.626;23.382;2023-06-26T07:52:46;93963.94;;;27.71;57.75
7768;BME280;3928;42.626;23.382;2023-06-26T07:55:16;93966.88;;;27.96;55.83
7768;BME280;3928;42.626;23.382;2023-06-26T07:57:43;93968.81;;;27.94;53.68
7768;BME280;3928;42.626;23.382;2023-06-26T08:00:11;93967.81;;;28.05;54.35
7768;BME280;3928;42.626;23.382;2023-06-26T08:02:38;93965.22;;;28.34;52.09
7768;BME280;3928;42.626;23.382;2023-06-26T08:05:05;93919.38;;;27.87;51.86
7768;BME280;3928;42.626;23.382;2023-06-26T08:07:32;93961.03;;;28.22;52.09
7768;BME280;3928;42.626;23.382;2023-06-26T08:09:59;93896.31;;;28.18;52.64
7768;BME280;3928;42.626;23.382;2023-06-26T08:12:29;93962.34;;;28.84;51.99
7768;BME280;3928;42.626;23.382;2023-06-26T08:14:57;93961.19;;;29.06;51.76
7768;BME280;3928;42.626;23.382;2023-06-26T08:17:24;93947.81;;;29.07;48.84
7768;BME280;3928;42.626;23.382;2023-06-26T08:19:51;93935.06;;;28.08;50.54
7768;BME280;3928;42.626;23.382;2023-06-26T08:22:17;93917.03;;;27.74;50.94
7768;BME280;3928;42.626;23.382;2023-06-26T08:24:44;93916.31;;;28.01;52.66
7768;BME280;3928;42.626;23.382;2023-06-26T08:27:11;93965.50;;;28.31;49.91
7768;BME280;3928;42.626;23.382;2023-06-26T08:29:39;93961.31;;;28.09;49.79
7768;BME280;3928;42.626;23.382;2023-06-26T08:32:07;93961.31;;;28.19;51.81
7768;BME280;3928;42.626;23.382;2023-06-26T08:34:34;93961.00;;;28.51;49.04
7768;BME280;3928;42.626;23.382;2023-06-26T08:37:03;93954.88;;;28.70;48.31
7768;BME280;3928;42.626;23.382;2023-06-26T08:39:29;93924.81;;;28.80;47.80
7768;BME280;3928;42.626;23.382;2023-06-26T08:41:57;93957.81;;;29.14;47.15
7768;BME280;3928;42.626;23.382;2023-06-26T08:44:25;93955.03;;;29.15;46.93
7768;BME280;3928;42.626;23.382;2023-06-26T08:46:53;93959.47;;;29.15;47.73
7768;BME280;3928;42.626;23.382;2023-06-26T08:49:25;93949.94;;;28.84;48.13
7768;BME280;3928;42.626;23.382;2023-06-26T08:51:56;93946.66;;;29.20;48.61
7768;BME280;3928;42.626;23.382;2023-06-26T08:54:29;93958.31;;;29.54;48.05
7768;BME280;3928;42.626;23.382;2023-06-26T08:56:59;93952.47;;;29.78;46.38
7768;BME280;3928;42.626;23.382;2023-06-26T08:59:26;93959.03;;;29.47;47.31
7768;BME280;3928;42.626;23.382;2023-06-26T09:01:55;93963.63;;;29.17;47.10
7768;BME280;3928;42.626;23.382;2023-06-26T09:04:22;93962.31;;;29.03;46.28
7768;BME280;3928;42.626;23.382;2023-06-26T09:06:49;93942.91;;;29.12;47.04
7768;BME280;3928;42.626;23.382;2023-06-26T09:09:15;93964.06;;;29.50;48.53
7768;BME280;3928;42.626;23.382;2023-06-26T09:11:42;93953.38;;;29.87;48.07
7768;BME280;3928;42.626;23.382;2023-06-26T09:14:09;93948.16;;;29.95;45.05
7768;BME280;3928;42.626;23.382;2023-06-26T09:16:40;93954.19;;;29.69;44.46
7768;BME280;3928;42.626;23.382;2023-06-26T09:19:10;93953.56;;;29.58;44.96
7768;BME280;3928;42.626;23.382;2023-06-26T09:21:38;93958.50;;;29.43;45.70
7768;BME280;3928;42.626;23.382;2023-06-26T09:24:06;93954.81;;;29.63;45.79
7768;BME280;3928;42.626;23.382;2023-06-26T09:26:35;93950.66;;;29.79;45.12
7768;BME280;3928;42.626;23.382;2023-06-26T09:29:02;93945.41;;;30.14;43.93
7768;BME280;3928;42.626;23.382;2023-06-26T09:31:29;93940.78;;;30.16;43.94
7768;BME280;3928;42.626;23.382;2023-06-26T09:33:58;93947.88;;;30.34;44.54
7768;BME280;3928;42.626;23.382;2023-06-26T09:36:29;93950.56;;;30.60;43.89
7768;BME280;3928;42.626;23.382;2023-06-26T09:38:59;93945.03;;;30.53;42.36
7768;BME280;3928;42.626;23.382;2023-06-26T09:41:26;93939.31;;;30.40;41.95
7768;BME280;3928;42.626;23.382;2023-06-26T09:43:54;93953.47;;;30.31;42.18
7768;BME280;3928;42.626;23.382;2023-06-26T09:46:24;93944.78;;;30.38;41.83
7768;BME280;3928;42.626;23.382;2023-06-26T09:48:59;93948.63;;;30.44;42.72
7768;BME280;3928;42.626;23.382;2023-06-26T09:51:30;93940.06;;;30.68;43.10
7768;BME280;3928;42.626;23.382;2023-06-26T09:53:58;93955.41;;;30.64;43.04
7768;BME280;3928;42.626;23.382;2023-06-26T09:56:27;93950.72;;;30.58;42.89
7768;BME280;3928;42.626;23.382;2023-06-26T09:58:55;93947.69;;;30.53;41.98
7768;BME280;3928;42.626;23.382;2023-06-26T10:01:23;93950.47;;;30.25;42.87
7768;BME280;3928;42.626;23.382;2023-06-26T10:03:50;93947.88;;;30.16;43.02
7768;BME280;3928;42.626;23.382;2023-06-26T10:06:19;93954.44;;;29.94;43.51
7768;BME280;3928;42.626;23.382;2023-06-26T10:08:49;93933.44;;;29.47;43.67
7768;BME280;3928;42.626;23.382;2023-06-26T10:11:19;93959.94;;;29.65;43.47
7768;BME280;3928;42.626;23.382;2023-06-26T10:13:50;93952.84;;;29.65;45.52
7768;BME280;3928;42.626;23.382;2023-06-26T10:16:23;93955.22;;;29.31;43.51
7768;BME280;3928;42.626;23.382;2023-06-26T10:18:53;93948.41;;;29.01;42.81
7768;BME280;3928;42.626;23.382;2023-06-26T10:21:21;93944.31;;;28.70;43.53
7768;BME280;3928;42.626;23.382;2023-06-26T10:23:51;93952.53;;;28.67;44.72
7768;BME280;3928;42.626;23.382;2023-06-26T10:26:20;93936.81;;;28.65;44.76
7768;BME280;3928;42.626;23.382;2023-06-26T10:28:48;93944.28;;;28.89;44.80
7768;BME280;3928;42.626;23.382;2023-06-26T10:31:18;93944.72;;;29.12;47.17
7768;BME280;3928;42.626;23.382;2023-06-26T10:33:46;93943.97;;;29.29;44.99
7768;BME280;3928;42.626;23.382;2023-06-26T10:36:15;93926.09;;;29.41;45.82
7768;BME280;3928;42.626;23.382;2023-06-26T10:38:56;93948.59;;;29.45;43.97
7768;BME280;3928;42.626;23.382;2023-06-26T10:41:24;93947.59;;;29.56;43.30
7768;BME280;3928;42.626;23.382;2023-06-26T10:43:51;93879.72;;;29.01;42.78
7768;BME280;3928;42.626;23.382;2023-06-26T10:46:33;93942.63;;;29.53;44.14
7768;BME280;3928;42.626;23.382;2023-06-26T10:49:00;93948.44;;;29.56;45.07
7768;BME280;3928;42.626;23.382;2023-06-26T10:51:27;93945.56;;;29.67;45.13
7768;BME280;3928;42.626;23.382;2023-06-26T10:53:57;93942.56;;;29.62;44.51
7768;BME280;3928;42.626;23.382;2023-06-26T10:56:43;93937.28;;;29.62;42.75
7768;BME280;3928;42.626;23.382;2023-06-26T10:59:17;93941.41;;;29.65;42.91
7768;BME280;3928;42.626;23.382;2023-06-26T11:01:53;93931.63;;;29.48;42.86
7768;BME280;3928;42.626;23.382;2023-06-26T11:04:36;93923.44;;;29.41;43.06
7768;BME280;3928;42.626;23.382;2023-06-26T11:07:19;93913.06;;;29.30;43.45
7768;BME280;3928;42.626;23.382;2023-06-26T11:09:58;93935.16;;;29.38;43.84
7768;BME280;3928;42.626;23.382;2023-06-26T11:12:37;93900.16;;;28.99;42.04
7768;BME280;3928;42.626;23.382;2023-06-26T11:15:08;93932.44;;;29.21;43.47
7768;BME280;3928;42.626;23.382;2023-06-26T11:17:35;93926.19;;;28.94;43.92
7768;BME280;3928;42.626;23.382;2023-06-26T11:20:02;93924.94;;;28.89;44.31
7768;BME280;3928;42.626;23.382;2023-06-26T11:22:34;93869.56;;;28.60;44.96
7768;BME280;3928;42.626;23.382;2023-06-26T11:25:03;93928.13;;;28.92;45.32
7768;BME280;3928;42.626;23.382;2023-06-26T11:27:32;93929.66;;;28.95;44.35
7768;BME280;3928;42.626;23.382;2023-06-26T11:29:59;93921.03;;;28.83;44.03
7768;BME280;3928;42.626;23.382;2023-06-26T11:32:26;93917.00;;;28.89;45.04
7768;BME280;3928;42.626;23.382;2023-06-26T11:34:53;93917.81;;;28.99;43.24
7768;BME280;3928;42.626;23.382;2023-06-26T11:37:21;93924.22;;;28.96;41.81
7768;BME280;3928;42.626;23.382;2023-06-26T11:39:48;93912.19;;;29.11;43.13
7768;BME280;3928;42.626;23.382;2023-06-26T11:42:16;93918.16;;;29.41;43.40
7768;BME280;3928;42.626;23.382;2023-06-26T11:44:43;93913.19;;;29.38;42.81
7768;BME280;3928;42.626;23.382;2023-06-26T11:47:15;93919.78;;;29.24;41.38
7768;BME280;3928;42.626;23.382;2023-06-26T11:49:43;93894.88;;;29.27;44.58
7768;BME280;3928;42.626;23.382;2023-06-26T11:52:11;93921.31;;;29.27;42.60
7768;BME280;3928;42.626;23.382;2023-06-26T11:54:39;93929.00;;;29.48;41.81
7768;BME280;3928;42.626;23.382;2023-06-26T11:57:06;93918.16;;;29.41;42.03
7768;BME280;3928;42.626;23.382;2023-06-26T11:59:38;93908.34;;;29.61;40.99
7768;BME280;3928;42.626;23.382;2023-06-26T12:02:06;93927.75;;;30.05;40.01
7768;BME280;3928;42.626;23.382;2023-06-26T12:04:36;93900.19;;;30.08;39.42
7768;BME280;3928;42.626;23.382;2023-06-26T12:07:05;93916.41;;;30.31;39.21
7768;BME280;3928;42.626;23.382;2023-06-26T12:09:38;93906.53;;;30.59;40.98
7768;BME280;3928;42.626;23.382;2023-06-26T12:12:06;93920.38;;;30.70;39.77
7768;BME280;3928;42.626;23.382;2023-06-26T12:14:34;93927.06;;;30.82;40.41
7768;BME280;3928;42.626;23.382;2023-06-26T12:17:08;93906.53;;;30.84;39.23
7768;BME280;3928;42.626;23.382;2023-06-26T12:19:37;93916.13;;;30.85;39.27
7768;BME280;3928;42.626;23.382;2023-06-26T12:22:06;93909.94;;;30.51;38.65
7768;BME280;3928;42.626;23.382;2023-06-26T12:24:35;93894.13;;;30.41;38.74
7768;BME280;3928;42.626;23.382;2023-06-26T12:27:08;93909.09;;;30.68;40.74
7768;BME280;3928;42.626;23.382;2023-06-26T12:29:38;93893.34;;;31.01;40.63
7768;BME280;3928;42.626;23.382;2023-06-26T12:32:11;93906.75;;;31.25;38.41
7768;BME280;3928;42.626;23.382;2023-06-26T12:34:38;93912.47;;;31.55;37.93
7768;BME280;3928;42.626;23.382;2023-06-26T12:37:07;93909.69;;;31.72;37.22
7768;BME280;3928;42.626;23.382;2023-06-26T12:39:47;93914.75;;;32.00;37.51
7768;BME280;3928;42.626;23.382;2023-06-26T12:42:15;93918.91;;;32.19;36.77
7768;BME280;3928;42.626;23.382;2023-06-26T12:44:42;93921.50;;;31.02;36.39
7768;BME280;3928;42.626;23.382;2023-06-26T12:47:12;93918.00;;;31.19;37.53
7768;BME280;3928;42.626;23.382;2023-06-26T12:49:40;93903.13;;;31.26;36.64
7768;BME280;3928;42.626;23.382;2023-06-26T12:52:09;93904.03;;;31.17;37.14
7768;BME280;3928;42.626;23.382;2023-06-26T12:54:37;93904.16;;;31.41;39.05
7768;BME280;3928;42.626;23.382;2023-06-26T12:57:05;93900.41;;;31.18;37.05
7768;BME280;3928;42.626;23.382;2023-06-26T12:59:32;93905.06;;;31.66;37.30
7768;BME280;3928;42.626;23.382;2023-06-26T13:02:00;93906.00;;;31.49;36.42
7768;BME280;3928;42.626;23.382;2023-06-26T13:04:28;93900.56;;;31.51;37.12
7768;BME280;3928;42.626;23.382;2023-06-26T13:06:56;93905.31;;;31.05;38.17
7768;BME280;3928;42.626;23.382;2023-06-26T13:09:25;93907.75;;;30.98;38.41
7768;BME280;3928;42.626;23.382;2023-06-26T13:11:52;93845.91;;;30.30;38.98
7768;BME280;3928;42.626;23.382;2023-06-26T13:14:19;93905.84;;;30.56;39.41
7768;BME280;3928;42.626;23.382;2023-06-26T13:16:46;93905.63;;;30.68;40.22
7768;BME280;3928;42.626;23.382;2023-06-26T13:19:15;93910.44;;;30.54;39.53